sensor_id;sensor_type;location;lat;lon;timestamp;pressure;altitude;pressure_sealevel;temperature;humidity
76331;BME280;65148;51.912;15.570;2022-11-24T00:11:24;100757.56;;;3.47;97.61
76331;BME280;65148;51.912;15.570;2022-11-24T00:26:30;100757.56;;;3.47;97.28
76331;BME280;65148;51.912;15.570;2022-11-24T00:41:54;100768.71;;;3.39;97.35
76331;BME280;65148;51.912;15.570;2022-11-24T00:56:56;100775.57;;;3.47;97.16
76331;BME280;65148;51.912;15.570;2022-11-24T01:11:57;100794.38;;;3.58;96.81
76331;BME280;65148;51.912;15.570;2022-11-24T01:27:01;100796.75;;;3.55;96.76
76331;BME280;65148;51.912;15.570;2022-11-24T01:42:24;100794.68;;;3.45;97.21
76331;BME280;65148;51.912;15.570;2022-11-24T01:57:29;100787.98;;;3.48;97.24
76331;BME280;65148;51.912;15.570;2022-11-24T02:12:33;100790.91;;;3.46;97.11
76331;BME280;65148;51.912;15.570;2022-11-24T02:27:35;100782.95;;;3.51;96.91
76331;BME280;65148;51.912;15.570;2022-11-24T02:42:57;100780.75;;;3.37;96.80
76331;BME280;65148;51.912;15.570;2022-11-24T02:58:00;100777.77;;;3.21;97.60
76331;BME280;65148;51.912;15.570;2022-11-24T03:13:01;100780.45;;;3.21;98.04
76331;BME280;65148;51.912;15.570;2022-11-24T03:28:02;100784.80;;;3.11;98.21
76331;BME280;65148;51.912;15.570;2022-11-24T03:43:23;100800.13;;;3.10;98.56
76331;BME280;65148;51.912;15.570;2022-11-24T03:58:24;100800.11;;;3.22;98.15
76331;BME280;65148;51.912;15.570;2022-11-24T04:13:26;100816.84;;;3.24;98.17
76331;BME280;65148;51.912;15.570;2022-11-24T04:28:27;100824.31;;;3.22;97.65
76331;BME280;65148;51.912;15.570;2022-11-24T04:43:52;100846.99;;;3.14;97.92
76331;BME280;65148;51.912;15.570;2022-11-24T04:58:54;100863.85;;;3.10;97.97
76331;BME280;65148;51.912;15.570;2022-11-24T05:13:55;100888.63;;;3.00;98.17
76331;BME280;65148;51.912;15.570;2022-11-24T05:28:56;100880.90;;;3.04;98.34
76331;BME280;65148;51.912;15.570;2022-11-24T05:44:21;100901.24;;;2.88;98.10
76331;BME280;65148;51.912;15.570;2022-11-24T05:59:22;100909.92;;;3.02;98.16
76331;BME280;65148;51.912;15.570;2022-11-24T06:14:23;100927.80;;;3.08;98.36
76331;BME280;65148;51.912;15.570;2022-11-24T06:29:24;100939.14;;;2.98;98.20
76331;BME280;65148;51.912;15.570;2022-11-24T06:44:51;100958.75;;;2.87;98.14
76331;BME280;65148;51.912;15.570;2022-11-24T06:59:52;100981.54;;;2.84;98.35
76331;BME280;65148;51.912;15.570;2022-11-24T07:14:53;101007.59;;;2.84;98.48
76331;BME280;65148;51.912;15.570;2022-11-24T07:29:54;101019.27;;;2.78;99.10
76331;BME280;65148;51.912;15.570;2022-11-24T07:45:20;101039.52;;;2.80;99.18
76331;BME280;65148;51.912;15.570;2022-11-24T08:00:20;101033.03;;;3.00;99.51
76331;BME280;65148;51.912;15.570;2022-11-24T08:15:21;101039.83;;;3.02;99.54
76331;BME280;65148;51.912;15.570;2022-11-24T08:30:23;101045.69;;;3.11;98.93
76331;BME280;65148;51.912;15.570;2022-11-24T08:45:48;101066.20;;;2.93;99.68
76331;BME280;65148;51.912;15.570;2022-11-24T09:00:48;101073.70;;;3.03;99.81
76331;BME280;65148;51.912;15.570;2022-11-24T09:15:49;101079.47;;;3.07;99.23
76331;BME280;65148;51.912;15.570;2022-11-24T09:30:51;101087.80;;;3.17;99.32
76331;BME280;65148;51.912;15.570;2022-11-24T10:01:35;101095.80;;;3.23;99.46
76331;BME280;65148;51.912;15.570;2022-11-24T10:32:06;101084.39;;;3.51;99.38
76331;BME280;65148;51.912;15.570;2022-11-24T10:47:19;101096.20;;;3.50;99.83
76331;BME280;65148;51.912;15.570;2022-11-24T11:02:29;101098.35;;;3.83;99.32
76331;BME280;65148;51.912;15.570;2022-11-24T11:17:48;101081.97;;;3.85;100.00
76331;BME280;65148;51.912;15.570;2022-11-24T11:32:58;101085.12;;;4.28;99.14
76331;BME280;65148;51.912;15.570;2022-11-24T11:48:11;101090.88;;;4.72;99.08
76331;BME280;65148;51.912;15.570;2022-11-24T12:34:07;101126.12;;;5.22;95.61
76331;BME280;65148;51.912;15.570;2022-11-24T13:04:45;101128.70;;;4.89;97.58
76331;BME280;65148;51.912;15.570;2022-11-24T13:19:47;101135.85;;;5.23;96.05
76331;BME280;65148;51.912;15.570;2022-11-24T13:35:00;101149.77;;;5.32;94.89
76331;BME280;65148;51.912;15.570;2022-11-24T13:50:22;101150.64;;;5.21;94.99
76331;BME280;65148;51.912;15.570;2022-11-24T14:05:32;101157.49;;;5.11;95.38
76331;BME280;65148;51.912;15.570;2022-11-24T14:20:35;101165.81;;;5.10;94.89
76331;BME280;65148;51.912;15.570;2022-11-24T14:35:57;101187.20;;;5.00;95.56
76331;BME280;65148;51.912;15.570;2022-11-24T14:51:05;101206.09;;;5.00;94.71
76331;BME280;65148;51.912;15.570;2022-11-24T15:06:15;101210.70;;;4.76;94.31
76331;BME280;65148;51.912;15.570;2022-11-24T15:21:41;101220.69;;;4.29;93.26
76331;BME280;65148;51.912;15.570;2022-11-24T15:36:43;101253.30;;;3.97;92.84
76331;BME280;65148;51.912;15.570;2022-11-24T15:51:44;101257.52;;;3.63;92.96
76331;BME280;65148;51.912;15.570;2022-11-24T16:06:49;101262.12;;;3.26;92.92
76331;BME280;65148;51.912;15.570;2022-11-24T16:22:09;101278.50;;;2.88;92.74
76331;BME280;65148;51.912;15.570;2022-11-24T16:37:10;101298.16;;;2.64;93.00
76331;BME280;65148;51.912;15.570;2022-11-24T16:52:12;101299.20;;;2.38;92.54
76331;BME280;65148;51.912;15.570;2022-11-24T17:07:13;101320.67;;;2.13;92.44
76331;BME280;65148;51.912;15.570;2022-11-24T17:22:39;101329.07;;;1.92;95.12
76331;BME280;65148;51.912;15.570;2022-11-24T17:37:40;101348.92;;;2.23;96.11
76331;BME280;65148;51.912;15.570;2022-11-24T17:52:41;101343.73;;;2.52;96.47
76331;BME280;65148;51.912;15.570;2022-11-24T18:07:42;101359.77;;;2.66;96.67
76331;BME280;65148;51.912;15.570;2022-11-24T18:23:10;101357.36;;;2.58;97.38
76331;BME280;65148;51.912;15.570;2022-11-24T18:38:12;101359.55;;;2.67;97.64
76331;BME280;65148;51.912;15.570;2022-11-24T18:53:13;101376.11;;;2.64;96.67
76331;BME280;65148;51.912;15.570;2022-11-24T19:08:14;101383.41;;;2.57;95.97
76331;BME280;65148;51.912;15.570;2022-11-24T19:23:39;101389.77;;;2.31;95.78
76331;BME280;65148;51.912;15.570;2022-11-24T19:38:42;101406.93;;;2.30;96.25
76331;BME280;65148;51.912;15.570;2022-11-24T19:53:49;101417.46;;;2.32;96.68
76331;BME280;65148;51.912;15.570;2022-11-24T20:08:50;101421.32;;;2.42;96.90
76331;BME280;65148;51.912;15.570;2022-11-24T20:24:12;101428.61;;;2.35;96.95
76331;BME280;65148;51.912;15.570;2022-11-24T20:39:15;101453.78;;;2.41;96.91
76331;BME280;65148;51.912;15.570;2022-11-24T20:54:17;101454.13;;;2.51;96.88
76331;BME280;65148;51.912;15.570;2022-11-24T21:09:18;101474.22;;;2.48;96.64
76331;BME280;65148;51.912;15.570;2022-11-24T21:24:39;101477.55;;;2.44;96.68
76331;BME280;65148;51.912;15.570;2022-11-24T21:39:40;101485.75;;;2.55;96.84
76331;BME280;65148;51.912;15.570;2022-11-24T21:54:45;101477.42;;;2.64;96.78
76331;BME280;65148;51.912;15.570;2022-11-24T22:09:46;101470.59;;;2.68;96.42
76331;BME280;65148;51.912;15.570;2022-11-24T22:25:09;101487.56;;;2.62;96.34
76331;BME280;65148;51.912;15.570;2022-11-24T22:40:10;101507.46;;;2.54;96.87
76331;BME280;65148;51.912;15.570;2022-11-24T22:55:11;101509.78;;;2.44;97.50
76331;BME280;65148;51.912;15.570;2022-11-24T23:10:12;101525.60;;;2.65;96.91
76331;BME280;65148;51.912;15.570;2022-11-24T23:25:38;101528.49;;;2.64;96.92
76331;BME280;65148;51.912;15.570;2022-11-24T23:40:39;101517.47;;;2.78;96.79
76331;BME280;65148;51.912;15.570;2022-11-24T23:55:40;101516.59;;;2.84;96.63
